HUAL Seoul — LADO6 — position and weather

sailwx.info

Track history (hours):
 
Tides and Currents Weather Stations Pressure Air Temp Water Temp Dewpoint Dewpoint Depression Visibility Wind Speed Wind Dir Waves Ship Positions

HUAL Seoul

Last reported at 2015-May-01 17:07 UTC. Time now 2015-May-23 16:30 UTC.
Position N 35°20' E 141°13'.
Warning: this ship's position is 21 days out of date.

Type: Cargo ship. MMSI: 257496000.

Date/timePositionNaut miles runAvg speedWind from/ knotsBaromVisibWave heightAir tempDewpointWater temp
2015-May-01 17:07N 35°20' E 141°13'1016.2
2015-May-01 16:30N 35°15' E 141°02'1515.4
2015-May-01 15:31N 35°08' E 140°45'1515.5
2015-May-01 14:33N 35°02' E 140°29'1515.6
2015-May-01 13:33N 34°55' E 140°12'1515.3
2015-May-01 12:33N 34°50' E 139°54'1312.9
2015-May-01 11:33N 34°57' E 139°41'1514.7
2015-May-01 10:33N 35°11' E 139°46'1110.8
2015-May-01 09:34N 35°21' E 139°42'9 9.2
2015-May-01 08:33N 35°30' E 139°46'0 0.1
2015-May-01 07:33N 35°30' E 139°46'0 0.0
2015-May-01 06:33N 35°30' E 139°46'0 0.0
2015-May-01 05:33N 35°30' E 139°46'0 0.0
2015-May-01 04:33N 35°30' E 139°46'0 0.0
2015-May-01 03:31N 35°30' E 139°46'0 0.0
2015-May-01 02:33N 35°30' E 139°46'0 0.0
2015-May-01 01:33N 35°30' E 139°46'0 0.0
2015-May-01 00:33N 35°30' E 139°46'0 0.2
2015-Apr-30 23:33N 35°30' E 139°46'8 8.0
2015-Apr-30 22:33N 35°22' E 139°45'1212.0
2015-Apr-30 21:33N 35°10' E 139°47'1211.8
2015-Apr-30 20:33N 34°59' E 139°42'1616.2
2015-Apr-30 19:33N 34°44' E 139°35'5616.0
2015-Apr-30 16:05N 34°26' E 138°31'179 6.0
2015-Apr-29 10:11N 33°49' E 134°59'1115.4
2015-Apr-29 09:30N 33°59' E 134°58'1415.2
2015-Apr-29 08:34N 34°13' E 134°57'1615.7
2015-Apr-29 07:33N 34°27' E 135°06'1716.6
2015-Apr-29 06:33N 34°41' E 135°18'1 1.0
2015-Apr-29 05:33N 34°41' E 135°17'0 0.0
2015-Apr-29 04:33N 34°41' E 135°17'0 0.0
2015-Apr-29 03:33N 34°41' E 135°17'0 0.0
2015-Apr-29 02:33N 34°41' E 135°17'0 0.0
2015-Apr-29 01:33N 34°41' E 135°17'0 0.0
2015-Apr-29 00:33N 34°41' E 135°17'0 0.0
2015-Apr-28 23:33N 34°41' E 135°17'0 0.4
2015-Apr-28 22:33N 34°41' E 135°17'7 7.5
2015-Apr-28 21:33N 34°34' E 135°15'1817.6
2015-Apr-28 20:33N 34°21' E 135°01'1515.2
2015-Apr-28 19:33N 34°06' E 134°60'1312.6
2015-Apr-28 18:33N 33°53' E 134°59'206 4.5
2015-Apr-26 20:33N 34°01' E 130°51'7 7.0
2015-Apr-26 19:31N 34°06' E 130°44'1210.3
2015-Apr-26 18:23N 34°12' E 130°32'1312.0
2015-Apr-26 17:17N 34°20' E 130°19'912.1
2015-Apr-26 16:32N 34°27' E 130°12'1212.1
2015-Apr-26 15:32N 34°34' E 130°00'1412.1
2015-Apr-26 14:22N 34°42' E 129°46'  
Track history (hours):
 
Tides and Currents Weather Stations Pressure Air Temp Water Temp Dewpoint Dewpoint Depression Visibility Wind Speed Wind Dir Waves Ship Positions

HUAL Seoul

Last reported at 2015-May-01 17:07 UTC. Time now 2015-May-23 16:30 UTC.
Position N 35°20' E 141°13'.
Warning: this ship's position is 21 days out of date.

Type: Cargo ship. MMSI: 257496000.

Date/timePositionNaut miles runAvg speedWind from/ knotsBaromVisibWave heightAir tempDewpointWater temp
2015-May-01 17:07N 35°20' E 141°13'1016.2
2015-May-01 16:30N 35°15' E 141°02'1515.4
2015-May-01 15:31N 35°08' E 140°45'1515.5
2015-May-01 14:33N 35°02' E 140°29'1515.6
2015-May-01 13:33N 34°55' E 140°12'1515.3
2015-May-01 12:33N 34°50' E 139°54'1312.9
2015-May-01 11:33N 34°57' E 139°41'1514.7
2015-May-01 10:33N 35°11' E 139°46'1110.8
2015-May-01 09:34N 35°21' E 139°42'9 9.2
2015-May-01 08:33N 35°30' E 139°46'0 0.1
2015-May-01 07:33N 35°30' E 139°46'0 0.0
2015-May-01 06:33N 35°30' E 139°46'0 0.0
2015-May-01 05:33N 35°30' E 139°46'0 0.0
2015-May-01 04:33N 35°30' E 139°46'0 0.0
2015-May-01 03:31N 35°30' E 139°46'0 0.0
2015-May-01 02:33N 35°30' E 139°46'0 0.0
2015-May-01 01:33N 35°30' E 139°46'0 0.0
2015-May-01 00:33N 35°30' E 139°46'0 0.2
2015-Apr-30 23:33N 35°30' E 139°46'8 8.0
2015-Apr-30 22:33N 35°22' E 139°45'1212.0
2015-Apr-30 21:33N 35°10' E 139°47'1211.8
2015-Apr-30 20:33N 34°59' E 139°42'1616.2
2015-Apr-30 19:33N 34°44' E 139°35'5616.0
2015-Apr-30 16:05N 34°26' E 138°31'179 6.0
2015-Apr-29 10:11N 33°49' E 134°59'1115.4
2015-Apr-29 09:30N 33°59' E 134°58'1415.2
2015-Apr-29 08:34N 34°13' E 134°57'1615.7
2015-Apr-29 07:33N 34°27' E 135°06'1716.6
2015-Apr-29 06:33N 34°41' E 135°18'1 1.0
2015-Apr-29 05:33N 34°41' E 135°17'0 0.0
2015-Apr-29 04:33N 34°41' E 135°17'0 0.0
2015-Apr-29 03:33N 34°41' E 135°17'0 0.0
2015-Apr-29 02:33N 34°41' E 135°17'0 0.0
2015-Apr-29 01:33N 34°41' E 135°17'0 0.0
2015-Apr-29 00:33N 34°41' E 135°17'0 0.0
2015-Apr-28 23:33N 34°41' E 135°17'0 0.4
2015-Apr-28 22:33N 34°41' E 135°17'7 7.5
2015-Apr-28 21:33N 34°34' E 135°15'1817.6
2015-Apr-28 20:33N 34°21' E 135°01'1515.2
2015-Apr-28 19:33N 34°06' E 134°60'1312.6
2015-Apr-28 18:33N 33°53' E 134°59'206 4.5
2015-Apr-26 20:33N 34°01' E 130°51'7 7.0
2015-Apr-26 19:31N 34°06' E 130°44'1210.3
2015-Apr-26 18:23N 34°12' E 130°32'1312.0
2015-Apr-26 17:17N 34°20' E 130°19'912.1
2015-Apr-26 16:32N 34°27' E 130°12'1212.1
2015-Apr-26 15:32N 34°34' E 130°00'1412.1
2015-Apr-26 14:22N 34°42' E 129°46'  

Dump ship's entire track history